Latest Weather Observations for Inglewood

IDQ60801

Issued at 3:35 pm EST Thursday 24 April 2014 (issued every 30 minutes, with the page automatically refreshed every 10 minutes)

About weather observations | Map of weather stations | Latest weather observations for QLD | Other Formats
Station Details ID: 041097 Name: INGLEWOOD FOREST Lat: -28.34 Lon: 150.94 Height: 379.0 m
Data from the previous 72 hours. | See also: Recent months at Inglewood
Date/Time
EST
Temp
°C
App
Temp
°C
Dew
Point
Rel
Hum
%
Delta-T
°C
Wind Press
QNH
hPa
Press
MSL
hPa
Rain
since 9 am
mm
Dir
 
Spd
km/h
Gust
km/h
Spd
kts
Gust
kts
24/03:30pm - - - - - SSE 11 17 6 9 - - 0.0
24/03:00pm - - - - - S 9 17 5 9 - - 0.0
24/02:30pm - - - - - SSE 11 17 6 9 - - 0.0
24/02:00pm - - - - - WNW 7 11 4 6 - - 0.0
24/01:30pm - - - - - N 7 13 4 7 - - 0.0
24/01:00pm - - - - - SW 7 11 4 6 - - 0.0
24/12:30pm - - - - - S 7 11 4 6 - - 0.0
24/12:00pm - - - - - SSE 9 17 5 9 - - 0.0
24/11:30am - - - - - N 4 9 2 5 - - 0.0
24/11:00am - - - - - NW 7 11 4 6 - - 0.0
24/10:30am - - - - - WNW 7 11 4 6 - - 0.0
24/10:00am - - - - - NW 7 15 4 8 - - 0.0
24/09:30am - - - - - NW 13 17 7 9 - - 0.0
24/09:00am - - - - - N 9 15 5 8 - - 0.0
24/08:30am - - - - - ENE 7 11 4 6 - - 0.0
24/08:00am - - - - - E 9 15 5 8 - - 0.0
24/07:30am - - - - - SE 9 13 5 7 - - 0.0
24/07:00am - - - - - ENE 9 13 5 7 - - 0.0
24/06:30am - - - - - E 9 13 5 7 - - 0.0
24/06:00am - - - - - CALM 0 0 0 0 - - 0.0
24/05:30am - - - - - WNW 6 11 3 6 - - 0.0
24/05:00am - - - - - N 11 19 6 10 - - 0.0
24/04:30am - - - - - N 19 33 10 18 - - 0.0
24/04:00am - - - - - NNE 17 30 9 16 - - 0.0
24/03:30am - - - - - NNE 11 17 6 9 - - 0.0
24/03:00am - - - - - N 13 19 7 10 - - 0.0
24/02:30am - - - - - NNE 11 15 6 8 - - 0.0
24/02:00am - - - - - NNE 11 15 6 8 - - 0.0
24/01:30am - - - - - NNE 11 17 6 9 - - 0.0
24/01:00am - - - - - N 13 20 7 11 - - 0.0
24/12:30am - - - - - N 11 17 6 9 - - 0.0
24/12:00am - - - - - NE 9 15 5 8 - - 0.0
 
Date/Time
EST
Temp
°C
App
Temp
°C
Dew
Point
Rel
Hum
%
Delta-T
°C
Wind Press
QNH
hPa
Press
MSL
hPa
Rain
since 9 am
mm
Dir
 
Spd
km/h
Gust
km/h
Spd
kts
Gust
kts
23/11:30pm - - - - - NNE 11 15 6 8 - - 0.0
23/11:00pm - - - - - N 13 17 7 9 - - 0.0
23/10:30pm - - - - - N 15 19 8 10 - - 0.0
23/10:00pm - - - - - N 13 17 7 9 - - 0.0
23/09:30pm - - - - - N 13 15 7 8 - - 0.0
23/09:00pm - - - - - N 13 15 7 8 - - 0.0
23/08:30pm - - - - - N 11 13 6 7 - - 0.0
23/08:00pm - - - - - N 9 11 5 6 - - 0.0
23/07:30pm - - - - - N 9 9 5 5 - - 0.0
23/07:00pm - - - - - N 7 9 4 5 - - 0.0
23/06:30pm - - - - - NNW 7 9 4 5 - - 0.0
23/06:00pm - - - - - N 7 7 4 4 - - 0.0
23/05:30pm - - - - - N 6 9 3 5 - - 0.0
23/05:00pm - - - - - CALM 0 0 0 0 - - 0.0
23/04:30pm - - - - - CALM 0 0 0 0 - - 0.0
23/04:00pm - - - - - NNE 4 7 2 4 - - 0.0
23/03:30pm - - - - - ESE 6 11 3 6 - - 0.0
23/03:00pm - - - - - ESE 9 17 5 9 - - 0.0
23/02:30pm - - - - - NNW 7 13 4 7 - - 0.0
23/02:00pm - - - - - WNW 7 13 4 7 - - 0.0
23/01:30pm - - - - - E 9 15 5 8 - - 0.0
23/01:00pm - - - - - NE 11 17 6 9 - - 0.0
23/12:30pm - - - - - NNE 9 13 5 7 - - 0.0
23/12:00pm - - - - - SSE 7 11 4 6 - - 0.0
23/11:30am - - - - - W 9 13 5 7 - - 0.0
23/11:00am - - - - - N 6 9 3 5 - - 0.0
23/10:30am - - - - - W 4 7 2 4 - - 0.0
23/10:00am - - - - - NNW 7 13 4 7 - - 0.0
23/09:30am - - - - - NW 9 17 5 9 - - 0.0
23/09:00am - - - - - NNW 6 13 3 7 - - 0.0
23/08:30am - - - - - ENE 2 6 1 3 - - 0.0
23/08:00am - - - - - E 9 15 5 8 - - 0.0
23/07:30am - - - - - ENE 9 13 5 7 - - 0.0
23/07:00am - - - - - ENE 9 13 5 7 - - 0.0
23/06:30am - - - - - NE 9 13 5 7 - - 0.0
23/06:00am - - - - - NNE 9 13 5 7 - - 0.0
23/05:30am - - - - - NE 9 17 5 9 - - 0.0
23/05:00am - - - - - NE 11 15 6 8 - - 0.0
23/04:30am - - - - - NNE 9 13 5 7 - - 0.0
23/04:00am - - - - - N 7 13 4 7 - - 0.0
23/03:30am - - - - - NNE 9 13 5 7 - - 0.0
23/03:00am - - - - - NNE 11 15 6 8 - - 0.0
23/02:30am - - - - - NNE 11 19 6 10 - - 0.0
23/02:00am - - - - - NNE 13 20 7 11 - - 0.0
23/01:30am - - - - - NE 11 20 6 11 - - 0.0
23/01:00am - - - - - N 11 17 6 9 - - 0.0
23/12:30am - - - - - N 11 17 6 9 - - 0.0
23/12:00am - - - - - NNE 13 19 7 10 - - 0.0
 
Date/Time
EST
Temp
°C
App
Temp
°C
Dew
Point
Rel
Hum
%
Delta-T
°C
Wind Press
QNH
hPa
Press
MSL
hPa
Rain
since 9 am
mm
Dir
 
Spd
km/h
Gust
km/h
Spd
kts
Gust
kts
22/11:30pm - - - - - N 15 20 8 11 - - 0.0
22/11:00pm - - - - - NNE 13 22 7 12 - - 0.0
22/10:30pm - - - - - NNE 13 22 7 12 - - 0.0
22/10:00pm - - - - - N 15 24 8 13 - - 0.0
22/09:30pm - - - - - NNE 13 20 7 11 - - 0.0
22/09:00pm - - - - - NNE 13 19 7 10 - - 0.0
22/08:30pm - - - - - NNE 11 17 6 9 - - 0.0
22/08:00pm - - - - - N 9 15 5 8 - - 0.0
22/07:30pm - - - - - N 11 15 6 8 - - 0.0
22/07:00pm - - - - - NNE 9 13 5 7 - - 0.0
22/06:30pm - - - - - NNE 9 11 5 6 - - 0.0
22/06:00pm - - - - - N 9 13 5 7 - - 0.0
22/05:30pm - - - - - NNE 7 9 4 5 - - 0.0
22/05:00pm - - - - - NNE 7 11 4 6 - - 0.0
22/04:30pm - - - - - NE 9 13 5 7 - - 0.0
22/04:00pm - - - - - NNE 6 15 3 8 - - 0.0
22/03:30pm - - - - - NW 4 9 2 5 - - 0.0
22/03:00pm - - - - - N 6 13 3 7 - - 0.0
22/02:30pm - - - - - W 9 17 5 9 - - 0.0
22/02:00pm - - - - - N 9 19 5 10 - - 0.0
22/01:30pm - - - - - NNE 9 19 5 10 - - 0.0
22/01:00pm - - - - - NE 9 17 5 9 - - 0.0
22/12:30pm - - - - - WNW 9 19 5 10 - - 0.0
22/12:00pm - - - - - NNW 9 19 5 10 - - 0.0
22/11:30am - - - - - NNW 11 24 6 13 - - 0.0
22/11:00am - - - - - NNW 13 20 7 11 - - 0.0
22/10:30am - - - - - NNW 17 22 9 12 - - 0.0
22/10:00am - - - - - N 13 26 7 14 - - 0.0
22/09:30am - - - - - NW 20 30 11 16 - - 0.0
22/09:00am - - - - - NNW 13 22 7 12 - - 0.0
22/08:30am - - - - - NNW 13 20 7 11 - - 0.0
22/08:00am - - - - - NNW 9 17 5 9 - - 0.0
22/07:30am - - - - - N 4 7 2 4 - - 0.0
22/07:00am - - - - - CALM 0 0 0 0 - - 0.0
22/06:30am - - - - - N 9 13 5 7 - - 0.0
22/06:00am - - - - - N 9 15 5 8 - - 0.0
22/05:30am - - - - - NNE 11 17 6 9 - - 0.0
22/05:00am - - - - - NNE 13 19 7 10 - - 0.0
22/04:30am - - - - - NNE 11 17 6 9 - - 0.0
22/04:00am - - - - - NNE 7 13 4 7 - - 0.0
22/03:30am - - - - - N 13 26 7 14 - - 0.0
22/03:00am - - - - - N 13 22 7 12 - - 0.0
22/02:30am - - - - - N 15 26 8 14 - - 0.0
22/02:00am - - - - - N 17 24 9 13 - - 0.0
22/01:30am - - - - - N 17 26 9 14 - - 0.0
22/01:00am - - - - - N 13 24 7 13 - - 0.0
22/12:30am - - - - - NNE 13 20 7 11 - - 0.0
22/12:00am - - - - - ENE 11 17 6 9 - - 0.0
 
Date/Time
EST
Temp
°C
App
Temp
°C
Dew
Point
Rel
Hum
%
Delta-T
°C
Wind Press
QNH
hPa
Press
MSL
hPa
Rain
since 9 am
mm
Dir
 
Spd
km/h
Gust
km/h
Spd
kts
Gust
kts
21/11:30pm - - - - - NNE 11 17 6 9 - - 0.0
21/11:00pm - - - - - NNE 11 15 6 8 - - 0.0
21/10:30pm - - - - - NE 7 13 4 7 - - 0.0
21/10:00pm - - - - - NE 7 9 4 5 - - 0.0
21/09:30pm - - - - - NNE 11 13 6 7 - - 0.0
21/09:00pm - - - - - SSE 9 15 5 8 - - 0.0
21/08:30pm - - - - - S 9 11 5 6 - - 0.0
21/08:00pm - - - - - SSE 7 9 4 5 - - 0.0
21/07:30pm - - - - - S 9 9 5 5 - - 0.0
21/07:00pm - - - - - WSW 7 9 4 5 - - 0.0
21/06:30pm - - - - - WSW 7 9 4 5 - - 0.0
21/06:00pm - - - - - WSW 7 9 4 5 - - 0.0
21/05:30pm - - - - - WSW 9 11 5 6 - - 0.0
21/05:00pm - - - - - WSW 7 9 4 5 - - 0.0
21/04:30pm - - - - - W 9 13 5 7 - - 0.0
21/04:00pm - - - - - N 6 13 3 7 - - 0.0

Other Formats:

Comma delimited format used in spreadsheet applications
http://www.bom.gov.au/fwo/IDQ60801/IDQ60801.95573.axf

JavaScript Object Notation format (JSON) in row-major order
http://www.bom.gov.au/fwo/IDQ60801/IDQ60801.95573.json